createdAt,value
2018-07-22T00:01:46.059Z,63.80
2018-07-22T00:04:13.773Z,63.40
2018-07-22T00:09:10.966Z,63.90
2018-07-22T00:11:38.757Z,63.90
2018-07-22T00:14:06.887Z,63.80
2018-07-22T00:19:02.491Z,64.60
2018-07-22T00:23:58.151Z,64.40
2018-07-22T00:26:25.915Z,64.20
2018-07-22T00:28:53.627Z,64.10
2018-07-22T00:31:21.357Z,64.80
2018-07-22T00:33:49.220Z,65.30
2018-07-22T00:36:16.995Z,65.30
2018-07-22T00:38:44.764Z,65.30
2018-07-22T00:41:12.511Z,64.60
2018-07-22T00:43:40.238Z,64.60
2018-07-22T00:46:07.959Z,64.70
2018-07-22T00:48:35.698Z,65.50
2018-07-22T00:51:03.444Z,65.50
2018-07-22T00:53:31.144Z,65.00
2018-07-22T00:55:58.888Z,64.10
2018-07-22T00:58:26.598Z,63.60
2018-07-22T01:00:54.424Z,63.50
2018-07-22T01:03:22.197Z,63.30
2018-07-22T01:05:49.923Z,62.90
2018-07-22T01:08:17.660Z,62.60
2018-07-22T01:10:45.456Z,62.80
2018-07-22T01:15:40.911Z,63.30
2018-07-22T01:18:08.664Z,63.10
2018-07-22T01:25:31.689Z,63.50
2018-07-22T01:27:59.410Z,63.70
2018-07-22T01:32:54.736Z,65.00
2018-07-22T01:35:22.511Z,64.70
2018-07-22T01:37:50.251Z,64.40
2018-07-22T01:42:45.600Z,64.70
2018-07-22T01:45:13.355Z,64.30
2018-07-22T01:47:41.119Z,64.30
2018-07-22T01:50:08.883Z,63.60
2018-07-22T01:52:36.696Z,63.60
2018-07-22T01:55:04.495Z,64.10
2018-07-22T02:02:27.527Z,65.70
2018-07-22T02:04:55.302Z,65.30
2018-07-22T02:07:23.080Z,66.20
2018-07-22T02:09:50.786Z,66.90
2018-07-22T02:12:18.508Z,67.20
2018-07-22T02:14:46.220Z,67.30
2018-07-22T02:19:41.547Z,68.30
2018-07-22T02:22:09.331Z,67.80
2018-07-22T02:24:37.080Z,68.30
2018-07-22T02:29:32.407Z,68.90
2018-07-22T02:32:00.163Z,68.80
2018-07-22T02:34:27.914Z,68.80
2018-07-22T02:36:55.616Z,69.00
2018-07-22T02:39:23.371Z,69.00
2018-07-22T02:41:51.087Z,69.70
2018-07-22T02:44:18.800Z,69.90
2018-07-22T02:46:46.499Z,68.80
2018-07-22T02:49:14.226Z,68.80
2018-07-22T02:51:41.951Z,68.90
2018-07-22T02:54:09.715Z,68.80
2018-07-22T02:56:37.459Z,68.70
2018-07-22T02:59:05.684Z,68.80
2018-07-22T03:04:02.787Z,70.50
2018-07-22T03:06:30.820Z,70.00
2018-07-22T03:08:58.618Z,69.90
2018-07-22T03:11:26.364Z,70.20
2018-07-22T03:13:54.150Z,70.10
2018-07-22T03:16:21.920Z,70.00
2018-07-22T03:18:49.678Z,69.80
2018-07-22T03:21:17.409Z,69.70
2018-07-22T03:23:45.169Z,70.00
2018-07-22T03:28:40.523Z,71.80
2018-07-22T03:31:08.247Z,72.10
2018-07-22T03:36:03.586Z,73.60
2018-07-22T03:40:58.916Z,74.30
2018-07-22T03:43:26.656Z,74.00
2018-07-22T03:45:54.359Z,74.80
2018-07-22T03:48:22.077Z,74.90
2018-07-22T03:50:49.806Z,75.20
2018-07-22T03:53:17.538Z,75.40
2018-07-22T03:55:45.312Z,75.50
2018-07-22T03:58:13.061Z,76.20
2018-07-22T04:03:08.436Z,75.40
2018-07-22T04:05:36.159Z,76.30
2018-07-22T04:08:03.887Z,76.90
2018-07-22T04:10:31.672Z,76.60
2018-07-22T04:12:59.407Z,75.70
2018-07-22T04:15:27.200Z,76.50
2018-07-22T04:20:22.579Z,77.20
2018-07-22T04:22:50.332Z,75.90
2018-07-22T04:25:18.063Z,74.50
2018-07-22T04:27:45.838Z,74.50
2018-07-22T04:30:13.564Z,75.20
2018-07-22T04:32:41.323Z,74.40
2018-07-22T04:35:09.036Z,74.20
2018-07-22T04:37:36.796Z,74.60
2018-07-22T04:40:04.634Z,76.00
2018-07-22T04:42:32.395Z,75.80
2018-07-22T04:45:00.140Z,76.00
2018-07-22T04:47:27.917Z,75.10
2018-07-22T04:49:55.632Z,75.20
2018-07-22T04:52:23.325Z,75.20
2018-07-22T04:54:51.042Z,76.40
2018-07-22T04:57:18.721Z,75.00
2018-07-22T04:59:46.422Z,75.80
2018-07-22T05:02:14.131Z,76.40
2018-07-22T05:04:41.841Z,76.40
2018-07-22T05:07:09.560Z,76.00
2018-07-22T05:09:37.305Z,74.80
2018-07-22T05:14:32.978Z,74.60
2018-07-22T05:17:00.819Z,75.00
2018-07-22T05:19:28.584Z,74.40
2018-07-22T05:21:56.306Z,75.00
2018-07-22T05:24:24.039Z,75.00
2018-07-22T05:26:51.802Z,74.40
2018-07-22T05:29:19.579Z,75.00
2018-07-22T05:31:47.307Z,75.30
2018-07-22T05:34:15.067Z,74.50
2018-07-22T05:36:42.794Z,75.10
2018-07-22T05:39:11.642Z,76.00
2018-07-22T05:41:39.786Z,75.60
2018-07-22T05:46:35.267Z,75.60
2018-07-22T05:49:03.313Z,74.70
2018-07-22T05:51:31.136Z,75.60
2018-07-22T05:56:26.627Z,74.70
2018-07-22T05:58:54.386Z,75.40
2018-07-22T06:01:22.140Z,74.20
2018-07-22T06:03:49.956Z,74.60
2018-07-22T06:06:17.749Z,72.90
2018-07-22T06:08:45.512Z,72.80
2018-07-22T06:11:13.396Z,72.80
2018-07-22T06:13:41.142Z,72.10
2018-07-22T06:16:08.875Z,71.70
2018-07-22T06:18:36.643Z,71.20
2018-07-22T06:21:04.415Z,70.30
2018-07-22T06:23:32.204Z,69.60
2018-07-22T06:25:59.904Z,70.50
2018-07-22T06:28:27.701Z,70.40
2018-07-22T06:30:55.435Z,70.20
2018-07-22T06:33:23.163Z,69.20
2018-07-22T06:35:50.903Z,67.90
2018-07-22T06:40:46.261Z,65.80
2018-07-22T06:43:14.059Z,65.00
2018-07-22T06:45:41.892Z,64.50
2018-07-22T06:48:09.683Z,64.00
2018-07-22T06:50:37.419Z,63.80
2018-07-22T06:53:05.172Z,62.70
2018-07-22T06:55:32.907Z,62.40
2018-07-22T06:58:00.679Z,63.40
2018-07-22T07:02:56.033Z,63.70
2018-07-22T07:05:23.839Z,63.60
2018-07-22T07:07:51.581Z,63.60
2018-07-22T07:10:19.351Z,63.00
2018-07-22T07:12:47.071Z,63.30
2018-07-22T07:17:42.494Z,64.10
2018-07-22T07:22:37.832Z,64.30
2018-07-22T07:25:06.167Z,63.20
2018-07-22T07:27:33.907Z,63.20
2018-07-22T07:30:02.004Z,62.50
2018-07-22T07:32:29.707Z,61.30
2018-07-22T07:37:25.077Z,59.00
2018-07-22T07:39:52.819Z,59.20
2018-07-22T07:42:20.618Z,59.80
2018-07-22T07:44:48.400Z,62.00
2018-07-22T07:47:16.173Z,62.90
2018-07-22T07:49:43.934Z,63.10
2018-07-22T07:52:11.663Z,60.40
2018-07-22T07:54:39.415Z,60.00
2018-07-22T07:57:07.160Z,60.00
2018-07-22T07:59:34.899Z,58.60
2018-07-22T08:02:02.629Z,56.10
2018-07-22T08:04:30.340Z,55.00
2018-07-22T08:06:58.119Z,54.30
2018-07-22T08:09:25.885Z,54.00
2018-07-22T08:11:53.667Z,53.50
2018-07-22T08:14:21.508Z,51.10
2018-07-22T08:16:49.259Z,50.50
2018-07-22T08:21:44.611Z,49.90
2018-07-22T08:24:12.384Z,48.80
2018-07-22T08:26:40.148Z,47.80
2018-07-22T08:29:28.895Z,48.90
2018-07-22T08:31:56.954Z,47.90
2018-07-22T08:34:24.772Z,47.00
2018-07-22T08:36:52.488Z,45.20
2018-07-22T08:39:21.591Z,46.70
2018-07-22T08:41:50.156Z,44.70
2018-07-22T08:44:17.886Z,41.50
2018-07-22T08:46:45.585Z,39.70
2018-07-22T08:49:13.327Z,36.80
2018-07-22T08:51:41.090Z,34.20
2018-07-22T08:54:08.822Z,32.20
2018-07-22T08:56:36.620Z,30.70
2018-07-22T08:59:04.604Z,29.60
2018-07-22T09:01:32.415Z,28.50
2018-07-22T09:04:00.324Z,28.10
2018-07-22T09:06:28.647Z,27.50
2018-07-22T09:08:56.627Z,26.90
2018-07-22T09:11:25.039Z,27.50
2018-07-22T09:16:20.951Z,27.10
2018-07-22T09:18:48.977Z,26.60
2018-07-22T09:21:16.727Z,25.90
2018-07-22T09:23:44.561Z,26.40
2018-07-22T09:26:12.464Z,27.20
2018-07-22T09:28:40.445Z,27.10
2018-07-22T09:31:08.307Z,25.90
2018-07-22T09:33:36.321Z,24.80
2018-07-22T09:36:04.126Z,23.70
2018-07-22T09:38:31.891Z,24.10
2018-07-22T09:40:59.619Z,23.00
2018-07-22T09:43:27.879Z,22.40
2018-07-22T09:45:55.917Z,21.90
2018-07-22T09:48:23.899Z,22.00
2018-07-22T09:55:48.024Z,20.50
2018-07-22T09:58:15.850Z,20.30
2018-07-22T10:03:17.179Z,19.70
2018-07-22T10:05:45.171Z,20.70
2018-07-22T10:08:13.067Z,20.80
2018-07-22T10:13:09.215Z,18.90
2018-07-22T10:15:36.939Z,16.50
2018-07-22T10:18:04.762Z,17.10
2018-07-22T10:23:00.074Z,18.40
2018-07-22T10:27:55.506Z,16.50
2018-07-22T10:30:23.292Z,17.80
2018-07-22T10:32:51.151Z,18.30
2018-07-22T10:37:46.813Z,18.00
2018-07-22T10:40:15.075Z,18.00
2018-07-22T10:42:42.851Z,16.80
2018-07-22T10:45:10.708Z,16.90
2018-07-22T10:47:39.079Z,16.00
2018-07-22T10:50:07.271Z,15.80
2018-07-22T10:52:35.015Z,15.50
2018-07-22T10:55:02.875Z,14.90
2018-07-22T10:57:30.645Z,14.30
2018-07-22T10:59:58.492Z,14.70
2018-07-22T11:02:26.280Z,13.80
2018-07-22T11:04:54.056Z,12.90
2018-07-22T11:07:22.413Z,12.40
2018-07-22T11:09:50.179Z,13.00
2018-07-22T11:12:17.951Z,12.60
2018-07-22T11:14:45.818Z,12.60
2018-07-22T11:17:13.899Z,11.00
2018-07-22T11:19:41.632Z,11.10
2018-07-22T11:22:09.665Z,11.20
2018-07-22T11:24:37.447Z,10.80
2018-07-22T11:29:33.082Z,11.20
2018-07-22T11:34:28.450Z,10.50
2018-07-22T11:36:56.237Z,9.70
2018-07-22T11:39:23.955Z,10.90
2018-07-22T11:41:51.704Z,10.00
2018-07-22T11:46:47.086Z,10.30
2018-07-22T11:49:14.840Z,10.50
2018-07-22T11:51:42.568Z,10.00
2018-07-22T11:54:10.289Z,10.30
2018-07-22T11:56:38.004Z,10.60
2018-07-22T11:59:05.839Z,10.90
2018-07-22T12:01:33.640Z,11.40
2018-07-22T12:06:28.942Z,11.20
2018-07-22T12:08:56.695Z,11.40
2018-07-22T12:11:24.391Z,11.30
2018-07-22T12:13:52.147Z,11.30
2018-07-22T12:18:47.515Z,11.40
2018-07-22T12:21:15.304Z,10.90
2018-07-22T12:23:43.076Z,10.70
2018-07-22T12:26:10.803Z,14.30
2018-07-22T12:28:38.580Z,14.50
2018-07-22T12:31:06.349Z,14.90
2018-07-22T12:33:34.091Z,14.10
2018-07-22T12:36:01.876Z,13.20
2018-07-22T12:38:29.722Z,13.30
2018-07-22T12:40:57.640Z,13.60
2018-07-22T12:43:25.429Z,13.90
2018-07-22T12:48:20.833Z,17.40
2018-07-22T12:50:48.560Z,18.70
2018-07-22T12:53:16.304Z,20.20
2018-07-22T12:55:44.050Z,19.70
2018-07-22T12:58:11.829Z,19.60
2018-07-22T13:00:39.634Z,19.20
2018-07-22T13:03:07.451Z,19.10
2018-07-22T13:05:35.923Z,18.90
2018-07-22T13:08:03.735Z,19.00
2018-07-22T13:10:31.704Z,18.90
2018-07-22T13:12:59.496Z,18.70
2018-07-22T13:15:27.247Z,18.70
2018-07-22T13:17:55.034Z,18.70
2018-07-22T13:22:50.446Z,18.70
2018-07-22T13:25:18.228Z,18.50
2018-07-22T13:30:14.770Z,19.10
2018-07-22T13:32:42.524Z,19.50
2018-07-22T13:35:10.311Z,18.90
2018-07-22T13:40:05.749Z,19.10
2018-07-22T13:45:01.132Z,18.50
2018-07-22T13:47:28.895Z,18.60
2018-07-22T13:49:56.641Z,19.60
2018-07-22T13:52:24.536Z,19.70
2018-07-22T13:54:52.320Z,18.90
2018-07-22T13:57:20.119Z,18.90
2018-07-22T13:59:48.029Z,18.80
2018-07-22T14:02:15.876Z,18.50
2018-07-22T14:04:43.655Z,18.50
2018-07-22T14:07:11.467Z,18.60
2018-07-22T14:12:07.067Z,18.50
2018-07-22T14:14:34.741Z,19.50
2018-07-22T14:17:02.539Z,19.40
2018-07-22T14:19:30.263Z,19.70
2018-07-22T14:21:58.034Z,19.40
2018-07-22T14:24:25.763Z,18.80
2018-07-22T14:26:53.561Z,18.70
2018-07-22T14:29:21.297Z,18.70
2018-07-22T14:31:49.101Z,18.60
2018-07-22T14:34:16.820Z,18.70
2018-07-22T14:36:44.582Z,19.10
2018-07-22T14:39:12.970Z,18.50
2018-07-22T14:41:41.156Z,18.70
2018-07-22T14:44:08.927Z,18.70
2018-07-22T14:46:37.043Z,18.90
2018-07-22T14:49:04.913Z,19.00
2018-07-22T14:51:32.707Z,19.00
2018-07-22T14:54:00.975Z,18.70
2018-07-22T14:56:28.682Z,18.80
2018-07-22T14:58:56.479Z,19.60
2018-07-22T15:01:24.264Z,20.40
2018-07-22T15:03:52.000Z,20.90
2018-07-22T15:06:19.761Z,21.20
2018-07-22T15:08:47.509Z,21.10
2018-07-22T15:11:15.235Z,20.70
2018-07-22T15:13:43.024Z,20.60
2018-07-22T15:16:10.770Z,20.90
2018-07-22T15:18:38.523Z,21.60
2018-07-22T15:21:06.419Z,21.60
2018-07-22T15:23:34.247Z,21.70
2018-07-22T15:26:02.241Z,22.00
2018-07-22T15:28:30.091Z,22.10
2018-07-22T15:30:57.845Z,22.70
2018-07-22T15:33:25.745Z,22.10
2018-07-22T15:35:53.515Z,22.10
2018-07-22T15:38:21.266Z,22.40
2018-07-22T15:40:49.114Z,22.00
2018-07-22T15:43:16.907Z,22.20
2018-07-22T15:45:44.592Z,23.00
2018-07-22T15:48:12.329Z,23.10
2018-07-22T15:50:40.024Z,24.10
2018-07-22T15:53:07.758Z,24.60
2018-07-22T15:55:35.580Z,25.10
2018-07-22T15:58:03.270Z,25.50
2018-07-22T16:00:31.022Z,26.20
2018-07-22T16:02:58.762Z,26.60
2018-07-22T16:05:26.462Z,27.40
2018-07-22T16:07:54.188Z,27.30
2018-07-22T16:10:21.907Z,27.40
2018-07-22T16:12:49.655Z,27.90
2018-07-22T16:15:17.371Z,28.30
2018-07-22T16:17:45.131Z,28.40
2018-07-22T16:20:12.907Z,28.90
2018-07-22T16:22:40.650Z,29.30
2018-07-22T16:25:08.731Z,29.60
2018-07-22T16:27:36.470Z,29.90
2018-07-22T16:30:05.334Z,30.10
2018-07-22T16:32:33.089Z,29.90
2018-07-22T16:35:00.830Z,30.00
2018-07-22T16:37:28.583Z,30.00
2018-07-22T16:39:56.411Z,29.70
2018-07-22T16:42:24.274Z,29.80
2018-07-22T16:44:52.112Z,30.00
2018-07-22T16:47:19.833Z,30.50
2018-07-22T16:49:47.587Z,30.30
2018-07-22T16:52:15.367Z,30.20
2018-07-22T16:54:43.186Z,30.30
2018-07-22T16:57:10.986Z,31.50
2018-07-22T16:59:38.739Z,30.00
2018-07-22T17:02:06.487Z,30.10
2018-07-22T17:04:34.187Z,30.40
2018-07-22T17:07:02.048Z,30.40
2018-07-22T17:09:29.768Z,30.40
2018-07-22T17:11:57.450Z,30.10
2018-07-22T17:14:25.160Z,30.00
2018-07-22T17:19:20.472Z,30.10
2018-07-22T17:21:48.176Z,29.70
2018-07-22T17:24:15.888Z,30.00
2018-07-22T17:26:43.574Z,29.60
2018-07-22T17:31:38.911Z,30.00
2018-07-22T17:34:06.619Z,29.90
2018-07-22T17:36:34.352Z,30.00
2018-07-22T17:39:02.159Z,30.00
2018-07-22T17:41:29.896Z,30.00
2018-07-22T17:43:57.618Z,30.10
2018-07-22T17:46:25.312Z,30.20
2018-07-22T17:48:53.010Z,30.30
2018-07-22T17:51:20.703Z,30.20
2018-07-22T17:56:16.028Z,30.70
2018-07-22T18:01:11.442Z,30.40
2018-07-22T18:03:39.207Z,30.30
2018-07-22T18:06:06.960Z,31.10
2018-07-22T18:08:34.679Z,31.30
2018-07-22T18:11:02.461Z,31.40
2018-07-22T18:13:36.922Z,31.60
2018-07-22T18:16:04.634Z,31.80
2018-07-22T18:18:32.322Z,32.30
2018-07-22T18:21:00.071Z,32.10
2018-07-22T18:23:27.815Z,32.30
2018-07-22T18:25:55.503Z,32.30
2018-07-22T18:28:23.230Z,32.10
2018-07-22T18:35:46.147Z,32.90
2018-07-22T18:38:13.876Z,33.20
2018-07-22T18:43:09.333Z,33.70
2018-07-22T18:45:37.076Z,34.00
2018-07-22T18:48:04.807Z,34.20
2018-07-22T18:50:32.576Z,34.40
2018-07-22T18:55:28.028Z,34.70
2018-07-22T18:57:55.807Z,34.90
2018-07-22T19:00:23.635Z,34.80
2018-07-22T19:02:51.670Z,34.90
2018-07-22T19:05:19.489Z,35.10
2018-07-22T19:10:14.863Z,36.00
2018-07-22T19:12:42.589Z,36.30
2018-07-22T19:15:10.315Z,35.80
2018-07-22T19:17:38.028Z,35.70
2018-07-22T19:20:05.828Z,35.50
2018-07-22T19:22:33.588Z,35.70
2018-07-22T19:25:01.362Z,35.70
2018-07-22T19:27:29.131Z,36.30
2018-07-22T19:34:52.217Z,37.40
2018-07-22T19:37:19.985Z,37.40
2018-07-22T19:39:47.757Z,37.10
2018-07-22T19:44:43.219Z,37.70
2018-07-22T19:47:11.021Z,38.00
2018-07-22T19:49:38.847Z,38.50
2018-07-22T19:52:06.883Z,39.10
2018-07-22T19:54:34.661Z,38.90
2018-07-22T19:57:02.449Z,38.70
2018-07-22T19:59:30.210Z,39.10
2018-07-22T20:04:25.608Z,39.40
2018-07-22T20:06:53.332Z,39.80
2018-07-22T20:11:48.639Z,40.90
2018-07-22T20:14:16.360Z,41.30
2018-07-22T20:16:44.026Z,42.20
2018-07-22T20:19:11.758Z,42.80
2018-07-22T20:21:39.431Z,43.10
2018-07-22T20:24:07.307Z,43.60
2018-07-22T20:26:34.946Z,44.50
2018-07-22T20:29:02.748Z,45.30
2018-07-22T20:31:30.575Z,45.50
2018-07-22T20:33:58.374Z,46.10
2018-07-22T20:36:26.126Z,46.40
2018-07-22T20:38:53.795Z,47.00
2018-07-22T20:41:21.519Z,47.80
2018-07-22T20:43:49.248Z,47.80
2018-07-22T20:51:12.216Z,49.00
2018-07-22T20:53:39.935Z,48.70
2018-07-22T20:56:07.676Z,49.50
2018-07-22T21:01:03.099Z,50.10
2018-07-22T21:05:58.496Z,49.60
2018-07-22T21:08:26.188Z,48.80
2018-07-22T21:10:53.906Z,48.20
2018-07-22T21:13:22.942Z,48.20
2018-07-22T21:18:18.356Z,45.10
2018-07-22T21:20:46.065Z,44.90
2018-07-22T21:23:13.814Z,45.10
2018-07-22T21:25:41.503Z,45.00
2018-07-22T21:28:09.270Z,45.20
2018-07-22T21:30:36.991Z,44.70
2018-07-22T21:38:00.647Z,44.10
2018-07-22T21:40:28.409Z,43.70
2018-07-22T21:42:56.074Z,43.30
2018-07-22T21:45:23.830Z,43.20
2018-07-22T21:47:51.558Z,43.00
2018-07-22T21:52:46.861Z,44.00
2018-07-22T21:55:14.610Z,43.80
2018-07-22T21:57:42.345Z,45.20
2018-07-22T22:00:21.854Z,43.70
2018-07-22T22:02:49.558Z,44.50
2018-07-22T22:05:17.361Z,44.60
2018-07-22T22:07:45.139Z,44.00
2018-07-22T22:10:12.981Z,44.50
2018-07-22T22:12:40.736Z,45.00
2018-07-22T22:15:14.952Z,45.40
2018-07-22T22:17:43.035Z,45.20
2018-07-22T22:20:10.759Z,46.30
2018-07-22T22:22:38.507Z,47.20
2018-07-22T22:25:06.292Z,46.00
2018-07-22T22:27:34.064Z,46.40
2018-07-22T22:30:01.797Z,46.70
2018-07-22T22:32:29.608Z,46.70
2018-07-22T22:34:57.370Z,47.20
2018-07-22T22:37:25.100Z,47.40
2018-07-22T22:39:52.826Z,47.60
2018-07-22T22:47:15.822Z,49.20
2018-07-22T22:49:43.632Z,49.20
2018-07-22T22:52:11.394Z,49.50
2018-07-22T22:54:39.123Z,48.90
2018-07-22T22:57:06.949Z,49.60
2018-07-22T22:59:35.120Z,50.20
2018-07-22T23:04:30.521Z,51.40
2018-07-22T23:06:58.310Z,51.10
2018-07-22T23:09:26.068Z,51.70
2018-07-22T23:11:53.796Z,51.50
2018-07-22T23:14:21.584Z,51.70
2018-07-22T23:16:49.319Z,51.40
2018-07-22T23:19:17.063Z,51.90
2018-07-22T23:21:44.795Z,52.10
2018-07-22T23:24:12.519Z,52.10
2018-07-22T23:26:40.296Z,52.50
2018-07-22T23:29:08.486Z,52.60
2018-07-22T23:31:36.674Z,53.50
2018-07-22T23:34:05.643Z,53.80
2018-07-22T23:36:33.768Z,53.20
2018-07-22T23:39:02.004Z,53.50
2018-07-22T23:43:57.909Z,55.20
2018-07-22T23:46:26.022Z,54.80
2018-07-22T23:51:21.989Z,56.00
2018-07-22T23:53:50.221Z,55.70
2018-07-22T23:56:18.281Z,56.40
2018-07-22T23:58:46.178Z,56.00
